Time;durP1;ratioP1;P1;durP2;ratioP2;P2;SDS_P1;SDS_P2;PMS_P1;PMS_P2;Temp;Humidity;BMP_temperature;BMP_pressure;BME280_temperature;BME280_humidity;BME280_pressure;Samples;Min_cycle;Max_cycle;Signal;HPM_P1;HPM_P2
2023/06/26 00:00:12;;;;;;;2.03;1.30;;;23.10;1.00;;;;;;5137984;27;20570;-61
2023/06/26 00:02:39;;;;;;;2.50;1.60;;;23.10;1.00;;;;;;5137480;27;20426;-57
2023/06/26 00:05:09;;;;;;;1.90;1.30;;;23.10;1.00;;;;;;5137237;27;20438;-56
2023/06/26 00:07:38;;;;;;;3.15;1.80;;;23.20;1.00;;;;;;5137201;27;20471;-57
2023/06/26 00:10:06;;;;;;;2.83;1.60;;;23.30;1.00;;;;;;5136830;27;20699;-59
2023/06/26 00:12:33;;;;;;;1.80;1.40;;;23.30;1.00;;;;;;5137354;27;20410;-56
2023/06/26 00:15:00;;;;;;;2.15;1.30;;;23.30;1.00;;;;;;5137435;27;20476;-57
2023/06/26 00:17:27;;;;;;;2.10;1.40;;;23.20;1.00;;;;;;5136771;27;20466;-56
2023/06/26 00:19:54;;;;;;;1.95;1.40;;;23.20;1.00;;;;;;5137306;27;20482;-55
2023/06/26 00:22:22;;;;;;;2.50;1.65;;;23.20;1.00;;;;;;5135850;27;20426;-57
2023/06/26 00:24:51;;;;;;;2.28;1.50;;;23.10;1.00;;;;;;5135640;27;20773;-56
2023/06/26 00:27:18;;;;;;;2.78;1.60;;;23.10;1.00;;;;;;5135918;27;20417;-55
2023/06/26 00:29:45;;;;;;;2.10;1.60;;;23.20;1.00;;;;;;5136244;27;20422;-58
2023/06/26 00:32:12;;;;;;;2.40;1.50;;;23.20;1.00;;;;;;5135795;27;20422;-57
2023/06/26 00:34:39;;;;;;;3.10;1.45;;;23.30;1.00;;;;;;5135315;27;20429;-59
2023/06/26 00:37:06;;;;;;;2.20;1.30;;;23.30;1.00;;;;;;5135594;27;20450;-57
2023/06/26 00:39:33;;;;;;;3.05;1.40;;;23.40;1.00;;;;;;5136455;27;20525;-55
2023/06/26 00:42:01;;;;;;;2.28;1.50;;;23.40;1.00;;;;;;5136962;27;20499;-57
2023/06/26 00:44:29;;;;;;;1.80;1.40;;;23.40;1.00;;;;;;5136380;27;20912;-56
2023/06/26 00:46:56;;;;;;;2.67;1.45;;;23.40;1.00;;;;;;5136667;27;20483;-57
2023/06/26 00:49:23;;;;;;;2.30;1.40;;;23.30;1.00;;;;;;5136529;27;20849;-57
2023/06/26 00:51:51;;;;;;;1.80;1.40;;;23.30;1.00;;;;;;5136912;27;20489;-62
2023/06/26 00:54:20;;;;;;;2.63;1.70;;;23.30;1.00;;;;;;5136651;27;20476;-57
2023/06/26 00:56:47;;;;;;;1.92;1.42;;;23.30;1.00;;;;;;5136860;27;20418;-57
2023/06/26 00:59:16;;;;;;;2.20;1.42;;;23.30;1.00;;;;;;5136674;27;20520;-57
2023/06/26 01:01:43;;;;;;;2.00;1.40;;;23.30;1.00;;;;;;5136113;27;20826;-59
2023/06/26 01:04:17;;;;;;;2.47;1.45;;;23.20;1.00;;;;;;5136524;27;20772;-57
2023/06/26 01:06:48;;;;;;;3.80;1.50;;;23.30;1.00;;;;;;5135825;27;20544;-54
2023/06/26 01:09:16;;;;;;;2.83;1.60;;;23.20;1.00;;;;;;5135884;27;20451;-56
2023/06/26 01:11:43;;;;;;;2.30;1.40;;;23.10;1.00;;;;;;5136644;27;20834;-57
2023/06/26 01:14:11;;;;;;;2.95;1.40;;;23.00;1.00;;;;;;5136684;27;20418;-56
2023/06/26 01:16:40;;;;;;;2.50;1.40;;;22.90;1.00;;;;;;5136638;27;20471;-55
2023/06/26 01:19:12;;;;;;;2.60;1.70;;;22.90;1.00;;;;;;5136491;27;20429;-57
2023/06/26 01:21:44;;;;;;;2.75;1.40;;;22.80;1.00;;;;;;5136154;27;20487;-57
2023/06/26 01:24:20;;;;;;;2.45;1.48;;;22.80;1.00;;;;;;5136260;27;20441;-56
2023/06/26 01:26:51;;;;;;;2.20;1.40;;;22.80;1.00;;;;;;5134952;27;20897;-54
2023/06/26 01:29:19;;;;;;;2.40;1.40;;;22.80;1.00;;;;;;5136249;27;20478;-58
2023/06/26 01:31:48;;;;;;;2.00;1.50;;;22.70;1.00;;;;;;5136526;27;20425;-56
2023/06/26 01:34:17;;;;;;;2.38;1.52;;;22.60;1.00;;;;;;5136215;27;20433;-56
2023/06/26 01:36:45;;;;;;;2.60;1.50;;;22.60;1.00;;;;;;5135952;27;20463;-56
2023/06/26 01:39:15;;;;;;;2.47;1.50;;;22.60;1.00;;;;;;5136032;27;20435;-54
2023/06/26 01:41:43;;;;;;;2.70;1.50;;;22.50;1.00;;;;;;5135929;27;20483;-56
2023/06/26 01:44:24;;;;;;;3.20;1.70;;;22.50;1.00;;;;;;5136104;28;20479;-53
2023/06/26 01:46:59;;;;;;;2.45;1.60;;;22.50;1.00;;;;;;5134780;28;20438;-56
2023/06/26 01:49:34;;;;;;;3.03;1.40;;;22.30;1.00;;;;;;5134790;28;20418;-57
2023/06/26 01:52:21;;;;;;;2.17;1.67;;;22.30;1.00;;;;;;5136277;28;20458;-57
2023/06/26 01:54:55;;;;;;;3.08;1.55;;;22.30;1.00;;;;;;5135790;28;20656;-55
2023/06/26 01:57:23;;;;;;;2.75;1.60;;;22.20;1.00;;;;;;5135742;28;20418;-57
2023/06/26 01:59:53;;;;;;;2.00;1.50;;;22.10;1.00;;;;;;5136238;28;20921;-56
2023/06/26 02:02:20;;;;;;;1.90;1.40;;;22.00;1.00;;;;;;5135277;28;20524;-55
2023/06/26 02:04:48;;;;;;;2.10;1.50;;;22.00;1.00;;;;;;5135318;28;20502;-56
2023/06/26 02:07:16;;;;;;;2.80;1.73;;;21.90;1.00;;;;;;5135354;28;20794;-56
2023/06/26 02:09:43;;;;;;;2.40;1.80;;;21.90;1.00;;;;;;5134796;28;20419;-56
2023/06/26 02:12:10;;;;;;;2.50;1.50;;;21.90;1.00;;;;;;5136654;27;20410;-53
2023/06/26 02:14:37;;;;;;;1.90;1.40;;;22.10;1.00;;;;;;5139699;27;20417;-54
2023/06/26 02:17:08;;;;;;;3.00;1.45;;;22.10;1.00;;;;;;5139969;27;20483;-55
2023/06/26 02:19:35;;;;;;;2.10;1.30;;;22.10;1.00;;;;;;5139423;27;20466;-56
2023/06/26 02:22:03;;;;;;;1.70;1.40;;;22.20;99.90;;;;;;5139477;27;20418;-54
2023/06/26 02:24:30;;;;;;;1.92;1.30;;;22.20;1.00;;;;;;5139570;27;20469;-56
2023/06/26 02:26:57;;;;;;;2.05;1.30;;;22.20;99.90;;;;;;5139402;27;20476;-56
2023/06/26 02:29:24;;;;;;;2.40;1.40;;;22.20;91.80;;;;;;5139842;27;20422;-54
2023/06/26 02:31:51;;;;;;;2.20;1.50;;;22.20;92.50;;;;;;5139508;27;20429;-55
2023/06/26 02:34:20;;;;;;;2.15;1.25;;;22.10;92.60;;;;;;5139525;27;20845;-55
2023/06/26 02:36:47;;;;;;;1.80;1.30;;;22.10;92.90;;;;;;5139264;27;20471;-56
2023/06/26 02:39:14;;;;;;;2.20;1.52;;;22.20;93.20;;;;;;5139235;27;20422;-52
2023/06/26 02:41:41;;;;;;;2.30;1.35;;;22.20;93.20;;;;;;5139031;27;20422;-54
2023/06/26 02:44:08;;;;;;;2.28;1.48;;;22.20;93.50;;;;;;5139307;27;20426;-55
2023/06/26 02:46:35;;;;;;;1.60;1.30;;;22.20;93.60;;;;;;5139108;27;20434;-54
2023/06/26 02:49:02;;;;;;;2.40;1.50;;;22.20;93.70;;;;;;5139113;27;20422;-57
2023/06/26 02:51:30;;;;;;;2.35;1.50;;;22.20;94.00;;;;;;5139127;27;20466;-56
2023/06/26 02:53:57;;;;;;;2.83;1.50;;;22.20;94.30;;;;;;5138539;27;20427;-55
2023/06/26 02:56:28;;;;;;;2.30;1.50;;;22.30;94.30;;;;;;5139274;27;20414;-53
2023/06/26 02:58:55;;;;;;;2.33;1.50;;;22.30;94.50;;;;;;5138408;27;20426;-57
2023/06/26 03:01:22;;;;;;;2.03;1.60;;;22.20;94.70;;;;;;5138719;27;20463;-55
2023/06/26 03:03:49;;;;;;;2.10;1.30;;;22.20;94.90;;;;;;5139031;27;20487;-57
2023/06/26 03:06:17;;;;;;;2.97;1.50;;;22.10;95.20;;;;;;5138845;27;20465;-56
2023/06/26 03:08:45;;;;;;;2.20;1.40;;;22.10;95.60;;;;;;5138420;27;20422;-56
2023/06/26 03:11:12;;;;;;;3.05;1.40;;;22.20;96.00;;;;;;5137486;27;20903;-56
2023/06/26 03:13:39;;;;;;;2.30;1.50;;;22.20;95.80;;;;;;5136925;27;20426;-56
2023/06/26 03:16:06;;;;;;;2.38;1.45;;;22.20;96.00;;;;;;5136996;27;20453;-56
2023/06/26 03:18:33;;;;;;;2.50;1.30;;;22.10;96.20;;;;;;5136145;27;20451;-56
2023/06/26 03:21:00;;;;;;;1.95;1.45;;;22.10;96.70;;;;;;5136662;27;20479;-56
2023/06/26 03:23:27;;;;;;;1.80;1.40;;;22.10;97.30;;;;;;5136170;27;20884;-55
2023/06/26 03:25:56;;;;;;;1.85;1.30;;;22.10;96.80;;;;;;5135523;27;20877;-55
2023/06/26 03:28:23;;;;;;;2.25;1.38;;;22.10;96.80;;;;;;5138584;27;20422;-56
2023/06/26 03:30:50;;;;;;;2.00;1.40;;;22.00;97.30;;;;;;5136949;27;20418;-56
2023/06/26 03:33:17;;;;;;;1.70;1.27;;;22.00;97.60;;;;;;5136844;27;20471;-56
2023/06/26 03:35:44;;;;;;;2.53;1.50;;;22.00;97.90;;;;;;5137002;27;20418;-56
2023/06/26 03:38:11;;;;;;;2.70;1.50;;;22.00;98.20;;;;;;5136424;27;20423;-57
2023/06/26 03:40:38;;;;;;;2.38;1.30;;;22.00;98.50;;;;;;5135976;27;20498;-57
2023/06/26 03:43:06;;;;;;;1.90;1.40;;;22.00;98.50;;;;;;5136556;27;20459;-55
2023/06/26 03:45:33;;;;;;;2.55;1.48;;;22.00;99.10;;;;;;5137642;27;20852;-53
2023/06/26 03:48:00;;;;;;;1.85;1.50;;;22.10;98.50;;;;;;5138036;27;20426;-56
2023/06/26 03:50:27;;;;;;;2.10;1.50;;;22.00;98.60;;;;;;5137897;27;20475;-56
2023/06/26 03:52:54;;;;;;;2.00;1.40;;;22.00;99.20;;;;;;5137422;27;20453;-57
2023/06/26 03:55:24;;;;;;;2.13;1.30;;;22.00;99.50;;;;;;5137365;27;20430;-57
2023/06/26 03:57:51;;;;;;;1.92;1.40;;;22.00;99.70;;;;;;5136102;27;20432;-57
2023/06/26 04:00:19;;;;;;;2.57;1.60;;;21.90;99.80;;;;;;5137446;27;20422;-57
2023/06/26 04:02:46;;;;;;;2.20;1.38;;;21.90;99.90;;;;;;5137732;27;20761;-57
2023/06/26 04:05:13;;;;;;;2.40;1.30;;;22.00;99.90;;;;;;5136741;27;20439;-56
2023/06/26 04:07:40;;;;;;;1.90;1.30;;;22.00;99.90;;;;;;5134687;27;20434;-58
2023/06/26 04:10:09;;;;;;;1.95;1.48;;;22.10;99.90;;;;;;5134416;27;20861;-58
2023/06/26 04:12:36;;;;;;;2.70;1.40;;;22.20;99.90;;;;;;5135277;27;20709;-58
2023/06/26 04:15:03;;;;;;;2.20;1.40;;;22.20;99.90;;;;;;5134802;27;20483;-58
2023/06/26 04:17:31;;;;;;;3.40;1.70;;;22.20;99.90;;;;;;5134739;27;20422;-57
2023/06/26 04:19:58;;;;;;;2.78;1.55;;;22.20;99.90;;;;;;5135532;27;20434;-57
2023/06/26 04:22:26;;;;;;;1.77;1.30;;;22.30;99.90;;;;;;5134445;27;20418;-60
2023/06/26 04:24:53;;;;;;;1.75;1.35;;;22.30;99.90;;;;;;5134960;27;20419;-56
2023/06/26 04:27:20;;;;;;;2.97;2.00;;;22.30;99.90;;;;;;5135133;27;20864;-54
2023/06/26 04:29:47;;;;;;;2.67;1.50;;;22.40;99.90;;;;;;5134499;27;20849;-56
2023/06/26 04:32:14;;;;;;;2.30;1.30;;;22.40;99.90;;;;;;5134106;27;20616;-56
2023/06/26 04:34:43;;;;;;;1.93;1.20;;;22.40;99.90;;;;;;5134927;27;20582;-56
2023/06/26 04:37:11;;;;;;;2.78;1.40;;;22.40;99.90;;;;;;5134351;27;20475;-56
2023/06/26 04:39:38;;;;;;;2.20;1.60;;;22.40;99.90;;;;;;5134601;27;20414;-57
2023/06/26 04:42:07;;;;;;;3.72;1.30;;;22.40;99.90;;;;;;5134724;27;20448;-57
2023/06/26 04:44:34;;;;;;;3.00;1.60;;;22.40;99.90;;;;;;5132979;27;20441;-57
2023/06/26 04:47:01;;;;;;;2.25;1.35;;;22.40;99.90;;;;;;5134976;27;20808;-57
2023/06/26 04:49:29;;;;;;;2.60;1.50;;;22.50;99.90;;;;;;5135750;27;20426;-57
2023/06/26 04:52:00;;;;;;;2.70;1.48;;;22.50;99.90;;;;;;5134143;27;20418;-57
2023/06/26 04:54:27;;;;;;;2.35;1.25;;;22.50;99.90;;;;;;5132571;27;20450;-56
2023/06/26 04:56:54;;;;;;;2.50;1.60;;;22.50;99.90;;;;;;5134395;27;20502;-57
2023/06/26 04:59:21;;;;;;;1.90;1.20;;;22.50;99.90;;;;;;5134533;27;20559;-56
2023/06/26 05:01:48;;;;;;;1.92;1.23;;;22.50;99.90;;;;;;5134405;27;20490;-58
2023/06/26 05:04:16;;;;;;;1.90;1.38;;;22.60;99.90;;;;;;5134961;27;20465;-57
2023/06/26 05:06:43;;;;;;;1.80;1.10;;;22.70;99.80;;;;;;5132728;27;20500;-54
2023/06/26 05:09:12;;;;;;;1.60;1.10;;;22.80;99.50;;;;;;5133850;27;20422;-55
2023/06/26 05:11:39;;;;;;;1.85;1.20;;;22.90;99.50;;;;;;5134670;27;20910;-57
2023/06/26 05:14:07;;;;;;;2.10;1.20;;;22.90;99.20;;;;;;5134703;27;20430;-55
2023/06/26 05:16:35;;;;;;;1.70;1.30;;;22.90;1.00;;;;;;5134789;27;20906;-56
2023/06/26 05:19:02;;;;;;;2.10;1.42;;;22.90;1.00;;;;;;5134668;27;20458;-57
2023/06/26 05:21:29;;;;;;;1.90;1.30;;;22.90;1.00;;;;;;5134087;27;20415;-56
2023/06/26 05:23:58;;;;;;;2.30;1.40;;;22.90;1.00;;;;;;5132392;27;20592;-57
2023/06/26 05:26:28;;;;;;;2.00;1.20;;;22.90;1.00;;;;;;5130350;27;20440;-56
2023/06/26 05:28:56;;;;;;;2.07;1.40;;;23.00;1.00;;;;;;5130079;27;20517;-57
2023/06/26 05:31:24;;;;;;;1.73;1.30;;;23.00;1.00;;;;;;5131978;27;20463;-56
2023/06/26 05:33:53;;;;;;;1.67;1.20;;;23.10;99.90;;;;;;5132919;27;20841;-56
2023/06/26 05:36:21;;;;;;;2.00;1.20;;;23.20;1.00;;;;;;5131141;27;20414;-61
2023/06/26 05:38:50;;;;;;;1.73;1.20;;;23.20;1.00;;;;;;5129882;27;20430;-57
2023/06/26 05:41:17;;;;;;;1.95;1.40;;;23.30;1.00;;;;;;5132432;27;20627;-56
2023/06/26 05:43:46;;;;;;;2.50;1.30;;;23.40;1.00;;;;;;5131723;27;20418;-57
2023/06/26 05:46:13;;;;;;;1.80;1.40;;;23.50;1.00;;;;;;5132082;28;20425;-57
2023/06/26 05:48:40;;;;;;;1.92;1.23;;;23.60;1.00;;;;;;5135093;27;20422;-57
2023/06/26 05:51:08;;;;;;;1.80;1.20;;;23.60;1.00;;;;;;5137779;27;20451;-56
2023/06/26 05:53:36;;;;;;;1.75;1.20;;;23.70;1.00;;;;;;5138932;27;20426;-56
2023/06/26 05:56:03;;;;;;;2.17;1.30;;;23.70;1.00;;;;;;5139425;27;20437;-56
2023/06/26 05:58:31;;;;;;;1.90;1.20;;;23.80;1.00;;;;;;5140310;27;20418;-53
2023/06/26 06:00:59;;;;;;;1.77;1.10;;;23.80;1.00;;;;;;5139822;27;20418;-55
2023/06/26 06:03:26;;;;;;;3.15;1.30;;;23.90;1.00;;;;;;5139827;27;20421;-56
2023/06/26 06:05:53;;;;;;;1.80;1.10;;;24.00;1.00;;;;;;5140208;27;20430;-57
2023/06/26 06:08:20;;;;;;;2.17;1.25;;;24.00;1.00;;;;;;5138547;27;20437;-56
2023/06/26 06:10:47;;;;;;;1.70;1.30;;;24.10;1.00;;;;;;5141294;27;20421;-55
2023/06/26 06:13:14;;;;;;;2.03;1.17;;;24.20;1.00;;;;;;5138526;27;20495;-57
2023/06/26 06:15:41;;;;;;;2.00;1.33;;;24.30;1.00;;;;;;5140223;27;20478;-57
2023/06/26 06:18:10;;;;;;;2.50;1.20;;;24.50;1.00;;;;;;5138677;27;20492;-58
2023/06/26 06:20:37;;;;;;;1.95;1.20;;;24.60;1.00;;;;;;5140120;27;20426;-58
2023/06/26 06:23:04;;;;;;;2.50;1.20;;;24.80;1.00;;;;;;5140062;27;20426;-57
2023/06/26 06:25:31;;;;;;;2.60;1.33;;;24.80;1.00;;;;;;5139278;27;20457;-57
2023/06/26 06:27:58;;;;;;;1.90;1.40;;;25.00;1.00;;;;;;5137024;27;20426;-58
2023/06/26 06:30:25;;;;;;;2.40;1.20;;;25.10;1.00;;;;;;5136111;27;20418;-58
2023/06/26 06:32:52;;;;;;;1.95;1.25;;;25.20;1.00;;;;;;5135371;27;20491;-58
2023/06/26 06:35:23;;;;;;;5.00;1.20;;;25.30;1.00;;;;;;5135021;27;20858;-58
2023/06/26 06:37:51;;;;;;;2.20;1.20;;;25.40;1.00;;;;;;5137686;27;20414;-58
2023/06/26 06:40:18;;;;;;;2.60;1.30;;;25.60;1.00;;;;;;5138034;27;20525;-59
2023/06/26 06:42:45;;;;;;;9.55;8.52;;;25.60;1.00;;;;;;5136499;27;20623;-59
2023/06/26 06:45:12;;;;;;;3.30;2.50;;;25.60;1.00;;;;;;5137691;27;20414;-59
2023/06/26 06:47:39;;;;;;;2.30;1.20;;;25.70;1.00;;;;;;5137135;27;20433;-59
2023/06/26 06:50:08;;;;;;;1.60;1.20;;;25.80;1.00;;;;;;5135697;27;20494;-59
2023/06/26 06:52:38;;;;;;;1.80;1.10;;;26.00;1.00;;;;;;5138748;27;20520;-59
2023/06/26 06:55:08;;;;;;;2.00;1.20;;;25.90;1.00;;;;;;5140833;27;20430;-58
2023/06/26 06:57:37;;;;;;;2.20;1.20;;;26.10;1.00;;;;;;5134993;27;20426;-58
2023/06/26 07:00:08;;;;;;;2.10;1.20;;;26.10;1.00;;;;;;5125155;27;20443;-59
2023/06/26 07:02:35;;;;;;;1.70;1.10;;;26.20;1.00;;;;;;5129742;27;20432;-59
2023/06/26 07:05:03;;;;;;;2.63;1.30;;;26.30;1.00;;;;;;5133221;27;20414;-60
2023/06/26 07:07:31;;;;;;;1.75;1.50;;;26.40;1.00;;;;;;5133888;27;20514;-59
2023/06/26 07:10:00;;;;;;;2.85;1.17;;;26.40;1.00;;;;;;5133408;27;20922;-59
2023/06/26 07:12:28;;;;;;;2.10;1.10;;;26.50;1.00;;;;;;5133521;27;20716;-59
2023/06/26 07:14:56;;;;;;;2.00;1.10;;;26.60;1.00;;;;;;5130128;27;20438;-59
2023/06/26 07:17:23;;;;;;;1.75;1.40;;;26.70;1.00;;;;;;5133982;27;20426;-60
2023/06/26 07:19:50;;;;;;;2.20;1.30;;;26.80;1.00;;;;;;5133388;27;20505;-58
2023/06/26 07:22:20;;;;;;;1.83;1.20;;;26.90;1.00;;;;;;5133451;27;20426;-60
2023/06/26 07:24:47;;;;;;;3.00;1.30;;;26.90;1.00;;;;;;5131298;27;20432;-59
2023/06/26 07:27:15;;;;;;;1.60;1.20;;;26.90;1.00;;;;;;5134525;27;20853;-59
2023/06/26 07:29:42;;;;;;;1.45;1.10;;;26.90;1.00;;;;;;5134985;27;20438;-59
2023/06/26 07:32:09;;;;;;;1.80;1.30;;;27.10;1.00;;;;;;5133873;27;20703;-59
2023/06/26 07:34:36;;;;;;;1.80;1.40;;;27.20;1.00;;;;;;5130001;27;20434;-59
2023/06/26 07:37:04;;;;;;;2.60;1.30;;;27.20;1.00;;;;;;5132932;27;20426;-58
2023/06/26 07:39:31;;;;;;;2.00;1.40;;;27.30;1.00;;;;;;5133292;27;20410;-59
2023/06/26 07:41:59;;;;;;;2.63;1.42;;;27.30;1.00;;;;;;5133744;27;20866;-59
2023/06/26 07:44:27;;;;;;;2.40;1.60;;;27.40;1.00;;;;;;5134884;27;20444;-60
2023/06/26 07:46:54;;;;;;;1.73;1.27;;;27.50;1.00;;;;;;5129178;27;20495;-59
2023/06/26 07:49:21;;;;;;;1.90;1.50;;;27.50;1.00;;;;;;5134010;27;20433;-60
2023/06/26 07:51:48;;;;;;;1.80;1.50;;;27.40;1.00;;;;;;5125852;27;20860;-59
2023/06/26 07:54:15;;;;;;;1.70;1.30;;;27.50;1.00;;;;;;5134981;27;20858;-59
2023/06/26 07:57:01;;;;;;;1.70;1.30;;;27.60;1.00;;;;;;5133772;27;20479;-59
2023/06/26 07:59:30;;;;;;;2.88;1.50;;;27.80;1.00;;;;;;5132747;27;20461;-60
2023/06/26 08:01:58;;;;;;;2.53;1.60;;;27.90;1.00;;;;;;5131549;27;20429;-60
2023/06/26 08:04:27;;;;;;;1.98;1.50;;;28.10;1.00;;;;;;5115752;28;20428;-59
2023/06/26 08:06:56;;;;;;;3.10;1.45;;;28.20;1.00;;;;;;5115410;28;20424;-60
2023/06/26 08:09:26;;;;;;;3.78;1.40;;;28.30;1.00;;;;;;5119317;27;20869;-58
2023/06/26 08:11:53;;;;;;;2.03;1.50;;;28.30;1.00;;;;;;5132016;27;20926;-59
2023/06/26 08:14:21;;;;;;;4.35;1.70;;;28.30;1.00;;;;;;5133332;27;20445;-59
2023/06/26 08:16:49;;;;;;;2.53;1.50;;;28.50;1.00;;;;;;5131951;27;20467;-59
2023/06/26 08:19:17;;;;;;;2.60;1.40;;;28.60;1.00;;;;;;5134035;27;20427;-59
2023/06/26 08:21:46;;;;;;;2.03;1.20;;;28.80;1.00;;;;;;5133330;27;20425;-61
2023/06/26 08:24:16;;;;;;;2.72;1.10;;;28.90;1.00;;;;;;5134457;27;20418;-59
2023/06/26 08:26:43;;;;;;;1.70;1.30;;;29.10;1.00;;;;;;5133814;27;20873;-59
2023/06/26 08:29:10;;;;;;;2.08;1.20;;;29.30;1.00;;;;;;5125539;27;20442;-58
2023/06/26 08:31:38;;;;;;;2.30;1.10;;;29.40;1.00;;;;;;5134331;27;20427;-59
2023/06/26 08:34:06;;;;;;;1.90;1.10;;;29.50;1.00;;;;;;5133608;27;20972;-58
2023/06/26 08:36:34;;;;;;;1.70;1.10;;;29.50;1.00;;;;;;5131271;27;20418;-59
2023/06/26 08:39:01;;;;;;;2.45;1.65;;;29.40;1.00;;;;;;5132225;27;20715;-58
2023/06/26 08:41:28;;;;;;;5.03;2.30;;;29.60;1.00;;;;;;5134675;27;20430;-58
2023/06/26 08:43:55;;;;;;;1.60;1.20;;;29.70;1.00;;;;;;5135405;27;20479;-58
2023/06/26 08:46:22;;;;;;;1.60;1.13;;;29.90;1.00;;;;;;5135091;27;20495;-58
2023/06/26 08:48:52;;;;;;;1.70;1.10;;;29.90;1.00;;;;;;5133046;27;20504;-59
2023/06/26 08:51:24;;;;;;;1.30;1.17;;;29.90;1.00;;;;;;5132001;27;20414;-58
2023/06/26 08:53:57;;;;;;;1.30;1.00;;;30.00;1.00;;;;;;5133308;27;20858;-58
2023/06/26 08:56:26;;;;;;;2.10;1.10;;;30.00;1.00;;;;;;5133302;27;20418;-58
2023/06/26 08:58:53;;;;;;;1.80;1.10;;;30.00;1.00;;;;;;5133876;27;20414;-58
2023/06/26 09:01:21;;;;;;;1.48;1.10;;;30.00;1.00;;;;;;5133265;27;20418;-58
2023/06/26 09:03:48;;;;;;;1.50;1.00;;;30.10;1.00;;;;;;5133757;27;20443;-57
2023/06/26 09:06:15;;;;;;;1.40;1.00;;;29.90;1.00;;;;;;5134295;27;20471;-58
2023/06/26 09:08:44;;;;;;;1.43;1.10;;;29.90;1.00;;;;;;5133502;27;20502;-58
2023/06/26 09:11:11;;;;;;;2.20;1.00;;;30.00;1.00;;;;;;5133188;27;20768;-59
2023/06/26 09:13:40;;;;;;;1.73;1.25;;;30.20;1.00;;;;;;5131612;27;20853;-58
2023/06/26 09:16:08;;;;;;;1.30;1.10;;;30.50;1.00;;;;;;5132055;27;20426;-59
2023/06/26 09:18:36;;;;;;;1.40;1.10;;;30.60;1.00;;;;;;5132047;27;20836;-58
2023/06/26 09:21:08;;;;;;;1.30;1.00;;;30.40;1.00;;;;;;5129868;27;20762;-57
2023/06/26 09:23:35;;;;;;;2.05;1.10;;;30.30;1.00;;;;;;5125326;27;20422;-58
2023/06/26 09:26:05;;;;;;;1.35;1.10;;;30.10;1.00;;;;;;5127069;27;20529;-58
2023/06/26 09:28:33;;;;;;;1.95;1.13;;;30.20;1.00;;;;;;5128858;27;20432;-59
2023/06/26 09:31:04;;;;;;;1.37;1.10;;;30.40;1.00;;;;;;5105750;28;20430;-58
2023/06/26 09:33:36;;;;;;;1.50;1.10;;;30.50;1.00;;;;;;5130098;27;20627;-58
2023/06/26 09:36:06;;;;;;;2.20;1.00;;;30.80;1.00;;;;;;5132070;27;20517;-58
2023/06/26 09:38:35;;;;;;;2.40;1.10;;;31.10;1.00;;;;;;5132560;27;20509;-57
2023/06/26 09:41:04;;;;;;;1.30;1.10;;;31.50;1.00;;;;;;5132146;27;20803;-59
2023/06/26 09:43:32;;;;;;;1.30;1.00;;;31.50;1.00;;;;;;5128675;27;20426;-59
2023/06/26 09:45:59;;;;;;;1.70;1.10;;;31.60;1.00;;;;;;5125600;28;20760;-58
2023/06/26 09:48:26;;;;;;;1.20;1.00;;;31.90;1.00;;;;;;5132294;28;20427;-59
2023/06/26 09:50:54;;;;;;;1.25;1.00;;;32.20;1.00;;;;;;5132215;28;20438;-59
2023/06/26 09:53:22;;;;;;;1.40;1.10;;;32.10;1.00;;;;;;5133148;28;20509;-59
2023/06/26 09:55:49;;;;;;;1.90;1.10;;;32.20;1.00;;;;;;5128654;27;20438;-59
2023/06/26 09:58:18;;;;;;;1.40;1.10;;;32.10;1.00;;;;;;5127497;27;20438;-59
2023/06/26 10:00:45;;;;;;;3.30;2.60;;;32.10;1.00;;;;;;5131395;28;20911;-59
2023/06/26 10:03:13;;;;;;;2.08;1.50;;;32.10;1.00;;;;;;5128304;28;20430;-59
2023/06/26 10:05:41;;;;;;;2.30;1.65;;;32.20;1.00;;;;;;5130731;28;20513;-60
2023/06/26 10:08:09;;;;;;;1.40;1.20;;;32.00;1.00;;;;;;5130060;28;20436;-60
2023/06/26 10:10:38;;;;;;;2.25;1.20;;;31.40;1.00;;;;;;5130246;28;20438;-60
2023/06/26 10:13:11;;;;;;;1.40;1.20;;;31.20;1.00;;;;;;5132409;28;20436;-58
2023/06/26 10:15:42;;;;;;;2.08;1.23;;;31.20;1.00;;;;;;5125449;28;20491;-58
2023/06/26 10:18:09;;;;;;;1.40;1.30;;;31.10;1.00;;;;;;5131859;28;20402;-58
2023/06/26 10:20:36;;;;;;;1.50;1.20;;;31.10;1.00;;;;;;5133414;28;20867;-58
2023/06/26 10:23:04;;;;;;;2.50;1.35;;;31.20;1.00;;;;;;5131458;28;20479;-59
2023/06/26 10:25:33;;;;;;;7.30;1.60;;;31.20;1.00;;;;;;5127528;28;20806;-57
2023/06/26 10:28:03;;;;;;;1.70;1.30;;;31.20;1.00;;;;;;5128101;28;20430;-57
2023/06/26 10:30:35;;;;;;;2.30;1.40;;;31.10;1.00;;;;;;5127879;28;20917;-57
2023/06/26 10:33:05;;;;;;;1.70;1.30;;;31.00;1.00;;;;;;5129300;27;20431;-57
2023/06/26 10:35:32;;;;;;;1.50;1.30;;;30.80;1.00;;;;;;5131763;27;20457;-57
2023/06/26 10:38:03;;;;;;;2.40;1.40;;;30.60;1.00;;;;;;5133574;27;20487;-57
2023/06/26 10:40:41;;;;;;;2.90;1.30;;;30.30;1.00;;;;;;5127826;27;20820;-58
2023/06/26 10:43:09;;;;;;;2.60;1.30;;;30.20;1.00;;;;;;5129280;27;20493;-57
2023/06/26 10:45:36;;;;;;;1.60;1.30;;;30.20;1.00;;;;;;5129221;27;20434;-58
2023/06/26 10:48:05;;;;;;;1.70;1.45;;;30.00;1.00;;;;;;5129033;27;20915;-58
2023/06/26 10:50:35;;;;;;;2.90;1.60;;;29.90;1.00;;;;;;5133138;27;20678;-58
2023/06/26 10:53:13;;;;;;;3.40;1.40;;;30.20;1.00;;;;;;5128586;27;20893;-58
2023/06/26 10:55:44;;;;;;;2.40;1.30;;;30.70;1.00;;;;;;5133317;27;21034;-58
2023/06/26 10:58:31;;;;;;;1.83;1.20;;;30.90;1.00;;;;;;5130359;27;20519;-59
2023/06/26 11:01:25;;;;;;;3.90;1.30;;;31.10;1.00;;;;;;5132956;27;20911;-59
2023/06/26 11:04:08;;;;;;;1.40;1.30;;;31.50;1.00;;;;;;5073748;27;20502;-57
2023/06/26 11:06:38;;;;;;;1.50;1.40;;;32.00;1.00;;;;;;5134814;27;20800;-57
2023/06/26 11:09:10;;;;;;;3.40;1.70;;;32.10;1.00;;;;;;5135691;27;20434;-57
2023/06/26 11:12:04;;;;;;;2.65;1.30;;;32.10;1.00;;;;;;5134489;27;20432;-57
2023/06/26 11:14:34;;;;;;;2.00;1.50;;;32.10;1.00;;;;;;5130687;27;20921;-58
2023/06/26 11:17:04;;;;;;;2.40;1.30;;;32.50;1.00;;;;;;5130078;27;20430;-57
2023/06/26 11:19:32;;;;;;;1.90;1.30;;;32.50;1.00;;;;;;5132433;27;20719;-58
2023/06/26 11:22:01;;;;;;;2.60;1.60;;;32.70;1.00;;;;;;5132482;27;20426;-58
2023/06/26 11:24:29;;;;;;;1.47;1.30;;;32.40;1.00;;;;;;5133012;27;20418;-59
2023/06/26 11:27:00;;;;;;;2.63;1.30;;;32.70;1.00;;;;;;5131747;27;20434;-58
2023/06/26 11:29:27;;;;;;;2.05;1.60;;;32.90;1.00;;;;;;5129535;27;20504;-59
2023/06/26 11:32:01;;;;;;;1.50;1.30;;;33.20;1.00;;;;;;5130395;27;20442;-58
2023/06/26 11:34:32;;;;;;;1.80;1.60;;;33.40;1.00;;;;;;5133727;27;20849;-59
2023/06/26 11:37:01;;;;;;;2.20;2.00;;;33.20;1.00;;;;;;5134304;27;20450;-58
2023/06/26 11:39:28;;;;;;;2.70;1.40;;;32.60;1.00;;;;;;5134867;27;20834;-58
2023/06/26 11:41:55;;;;;;;3.45;2.47;;;32.60;1.00;;;;;;5133329;27;20422;-58
2023/06/26 11:44:22;;;;;;;1.92;1.48;;;32.20;1.00;;;;;;5133133;27;20464;-58
2023/06/26 11:46:55;;;;;;;2.10;1.30;;;32.40;1.00;;;;;;5133659;27;20418;-58
2023/06/26 11:49:25;;;;;;;2.20;2.00;;;32.30;1.00;;;;;;5132125;27;20422;-59
2023/06/26 11:51:55;;;;;;;1.98;1.77;;;31.90;1.00;;;;;;5132663;27;20415;-59
2023/06/26 11:54:28;;;;;;;1.60;1.33;;;31.70;1.00;;;;;;5135045;27;20522;-59
2023/06/26 11:56:59;;;;;;;3.40;1.67;;;31.90;1.00;;;;;;5134342;27;20433;-60
2023/06/26 11:59:34;;;;;;;2.15;1.42;;;32.10;1.00;;;;;;5133558;27;20761;-59
2023/06/26 12:02:05;;;;;;;4.18;2.95;;;32.70;1.00;;;;;;5131054;27;20585;-60
2023/06/26 12:04:33;;;;;;;1.80;1.50;;;33.00;1.00;;;;;;5132239;27;20771;-60
2023/06/26 12:07:03;;;;;;;2.00;1.40;;;33.20;1.00;;;;;;5133658;27;20492;-60
2023/06/26 12:09:33;;;;;;;1.70;1.40;;;33.50;1.00;;;;;;5129632;27;20848;-60
2023/06/26 12:12:01;;;;;;;1.70;1.30;;;33.60;1.00;;;;;;5127754;27;20462;-59
2023/06/26 12:14:29;;;;;;;1.60;1.25;;;33.70;1.00;;;;;;5130608;27;20910;-59
2023/06/26 12:16:56;;;;;;;1.67;1.40;;;33.50;1.00;;;;;;5133212;27;20782;-58
2023/06/26 12:19:27;;;;;;;1.60;1.50;;;33.30;1.00;;;;;;5130169;27;20426;-58
2023/06/26 12:21:56;;;;;;;2.10;1.23;;;33.10;1.00;;;;;;5131487;27;20723;-58
2023/06/26 12:24:25;;;;;;;1.50;1.25;;;33.10;1.00;;;;;;5132229;27;20822;-59
2023/06/26 12:26:56;;;;;;;1.83;1.30;;;33.10;1.00;;;;;;5133105;27;20745;-58
2023/06/26 12:29:32;;;;;;;3.10;1.30;;;33.20;1.00;;;;;;5131531;27;20430;-57
2023/06/26 12:31:59;;;;;;;1.80;1.50;;;33.50;1.00;;;;;;5133309;27;20923;-57
2023/06/26 12:34:28;;;;;;;1.70;1.30;;;33.60;1.00;;;;;;5133509;27;20486;-58
2023/06/26 12:37:01;;;;;;;1.90;1.20;;;33.10;1.00;;;;;;5132524;27;20414;-58
2023/06/26 12:39:30;;;;;;;1.70;1.20;;;32.90;1.00;;;;;;5133971;27;20411;-57
2023/06/26 12:42:01;;;;;;;2.30;1.30;;;33.10;1.00;;;;;;5133242;27;20483;-58
2023/06/26 12:44:29;;;;;;;1.48;1.38;;;33.50;1.00;;;;;;5132762;27;20459;-58
2023/06/26 12:46:58;;;;;;;1.50;1.20;;;33.80;1.00;;;;;;5132190;27;20853;-59
2023/06/26 12:49:32;;;;;;;1.92;1.20;;;33.30;1.00;;;;;;5129896;27;20418;-61
2023/06/26 12:52:00;;;;;;;1.45;1.33;;;33.60;1.00;;;;;;5133688;27;20730;-61
2023/06/26 12:54:29;;;;;;;1.58;1.20;;;33.90;1.00;;;;;;5134467;27;20733;-60
2023/06/26 12:56:56;;;;;;;1.75;1.30;;;33.90;1.00;;;;;;5133242;27;20430;-60
2023/06/26 12:59:23;;;;;;;1.90;1.20;;;34.10;1.00;;;;;;5134553;27;20418;-61
2023/06/26 13:01:50;;;;;;;1.70;1.30;;;33.30;1.00;;;;;;5133073;27;20698;-61